Aviation Digital Data Service (ADDS)

Output produced by METARs form (0856 UTC 07 July 2015)
found at http://aviationweather.gov/adds/metars/
 
KLAN 070529Z 0706/0806 20008KT 6SM HZ SCT040 BKN250 
     FM070800 21011KT 6SM -SHRA BR VCTS BKN025CB OVC050 
     FM071200 23010KT 4SM -SHRA BR OVC009 
     FM071900 30010KT P6SM BKN015 
     FM072300 34007KT P6SM BKN050